createdAt,value
2019-04-07T00:00:41.093Z,68.10
2019-04-07T00:03:10.859Z,68.10
2019-04-07T00:05:40.651Z,68.10
2019-04-07T00:08:10.428Z,68.00
2019-04-07T00:10:40.253Z,68.10
2019-04-07T00:13:10.655Z,68.00
2019-04-07T00:15:40.490Z,68.10
2019-04-07T00:18:10.416Z,68.30
2019-04-07T00:20:42.018Z,68.30
2019-04-07T00:23:11.994Z,68.40
2019-04-07T00:25:41.694Z,68.30
2019-04-07T00:28:11.869Z,68.20
2019-04-07T00:30:42.407Z,68.10
2019-04-07T00:33:13.510Z,68.10
2019-04-07T00:35:43.607Z,68.00
2019-04-07T00:38:13.897Z,68.00
2019-04-07T00:40:43.797Z,68.00
2019-04-07T00:43:13.772Z,68.00
2019-04-07T00:45:49.204Z,68.00
2019-04-07T00:48:19.134Z,67.80
2019-04-07T00:50:48.867Z,67.90
2019-04-07T00:53:18.824Z,67.80
2019-04-07T00:55:48.688Z,67.80
2019-04-07T00:58:19.158Z,67.70
2019-04-07T01:00:49.034Z,67.60
2019-04-07T01:03:19.455Z,68.40
2019-04-07T01:05:56.128Z,67.70
2019-04-07T01:08:25.990Z,67.50
2019-04-07T01:10:55.891Z,67.60
2019-04-07T01:13:26.260Z,67.60
2019-04-07T01:15:56.108Z,67.70
2019-04-07T01:18:27.681Z,67.70
2019-04-07T01:20:57.612Z,67.70
2019-04-07T01:23:27.378Z,67.60
2019-04-07T01:25:57.369Z,67.60
2019-04-07T01:28:27.485Z,67.60
2019-04-07T01:30:57.936Z,67.60
2019-04-07T01:33:27.955Z,67.70
2019-04-07T01:35:59.903Z,67.70
2019-04-07T01:38:29.941Z,67.70
2019-04-07T01:41:02.159Z,67.80
2019-04-07T01:43:33.922Z,67.80
2019-04-07T01:46:12.937Z,67.80
2019-04-07T01:48:47.339Z,67.90
2019-04-07T01:51:18.750Z,67.90
2019-04-07T01:54:06.428Z,68.00
2019-04-07T01:56:48.313Z,67.80
2019-04-07T01:59:19.937Z,67.80
2019-04-07T02:02:08.109Z,67.80
2019-04-07T02:04:52.126Z,67.80
2019-04-07T02:07:33.755Z,68.70
2019-04-07T02:10:06.595Z,67.90
2019-04-07T02:12:55.641Z,67.80
2019-04-07T02:15:44.742Z,67.80
2019-04-07T02:18:16.377Z,67.80
2019-04-07T02:20:58.957Z,67.70
2019-04-07T02:23:33.888Z,67.60
2019-04-07T02:26:15.614Z,67.60
2019-04-07T02:28:48.373Z,67.50
2019-04-07T02:31:21.094Z,67.50
2019-04-07T02:33:52.868Z,66.70
2019-04-07T02:36:36.152Z,67.40
2019-04-07T02:39:15.166Z,67.40
2019-04-07T02:41:52.614Z,67.40
2019-04-07T02:44:25.171Z,67.30
2019-04-07T02:46:56.892Z,67.30
2019-04-07T02:49:37.961Z,67.20
2019-04-07T02:52:18.539Z,67.30
2019-04-07T02:54:53.240Z,67.20
2019-04-07T02:58:02.891Z,67.20
2019-04-07T03:00:34.440Z,67.30
2019-04-07T03:03:18.807Z,68.40
2019-04-07T03:05:50.761Z,67.20
2019-04-07T03:08:40.060Z,67.20
2019-04-07T03:11:11.486Z,67.20
2019-04-07T03:13:50.406Z,67.20
2019-04-07T03:16:31.152Z,67.30
2019-04-07T03:19:02.567Z,67.30
2019-04-07T03:21:36.451Z,67.30
2019-04-07T03:24:12.405Z,67.30
2019-04-07T03:26:44.512Z,67.40
2019-04-07T03:29:18.714Z,67.50
2019-04-07T03:32:10.180Z,67.50
2019-04-07T03:34:58.146Z,67.50
2019-04-07T03:37:39.799Z,67.70
2019-04-07T03:40:08.395Z,67.80
2019-04-07T03:42:43.604Z,67.80
2019-04-07T03:45:17.810Z,68.00
2019-04-07T03:47:54.880Z,68.00
2019-04-07T03:50:38.722Z,68.10
2019-04-07T03:53:13.154Z,68.30
2019-04-07T03:55:51.314Z,68.30
2019-04-07T03:58:22.907Z,68.40
2019-04-07T04:01:03.748Z,68.40
2019-04-07T04:03:50.073Z,68.30
2019-04-07T04:06:56.663Z,68.50
2019-04-07T04:09:37.761Z,68.30
2019-04-07T04:12:15.866Z,68.30
2019-04-07T04:15:05.330Z,68.40
2019-04-07T04:17:35.062Z,68.30
2019-04-07T04:20:08.429Z,68.30
2019-04-07T04:22:39.388Z,68.30
2019-04-07T04:25:10.513Z,68.30
2019-04-07T04:27:40.555Z,68.20
2019-04-07T04:30:12.132Z,68.30
2019-04-07T04:32:43.672Z,68.20
2019-04-07T04:35:13.532Z,68.10
2019-04-07T04:38:01.887Z,69.00
2019-04-07T04:40:35.076Z,68.40
2019-04-07T04:43:04.825Z,68.20
2019-04-07T04:45:34.705Z,68.30
2019-04-07T04:48:04.537Z,68.40
2019-04-07T04:50:35.180Z,68.30
2019-04-07T04:53:06.098Z,68.30
2019-04-07T04:55:39.279Z,68.40
2019-04-07T04:58:09.988Z,68.40
2019-04-07T05:00:41.480Z,68.40
2019-04-07T05:03:11.644Z,68.50
2019-04-07T05:05:45.665Z,68.50
2019-04-07T05:08:16.216Z,68.60
2019-04-07T05:10:46.054Z,68.60
2019-04-07T05:13:15.994Z,68.70
2019-04-07T05:15:45.952Z,68.90
2019-04-07T05:18:16.681Z,69.00
2019-04-07T05:20:46.662Z,69.20
2019-04-07T05:23:34.852Z,69.20
2019-04-07T05:26:07.008Z,69.30
2019-04-07T05:28:38.066Z,69.40
2019-04-07T05:31:07.940Z,69.40
2019-04-07T05:33:37.597Z,69.50
2019-04-07T05:36:10.552Z,69.80
2019-04-07T05:38:40.943Z,70.00
2019-04-07T05:41:10.794Z,70.20
2019-04-07T05:43:40.583Z,70.50
2019-04-07T05:46:10.374Z,70.80
2019-04-07T05:48:40.403Z,71.10
2019-04-07T05:51:10.110Z,71.30
2019-04-07T05:53:39.983Z,71.50
2019-04-07T05:56:09.777Z,71.80
2019-04-07T05:58:41.117Z,72.00
2019-04-07T06:01:10.968Z,72.10
2019-04-07T06:03:45.806Z,72.20
2019-04-07T06:06:19.052Z,72.10
2019-04-07T06:08:49.720Z,72.10
2019-04-07T06:11:22.355Z,72.00
2019-04-07T06:13:52.875Z,71.90
2019-04-07T06:16:27.457Z,71.90
2019-04-07T06:18:58.881Z,72.10
2019-04-07T06:21:28.770Z,72.20
2019-04-07T06:23:59.837Z,72.40
2019-04-07T06:26:31.156Z,72.40
2019-04-07T06:29:01.565Z,72.50
2019-04-07T06:31:33.962Z,72.50
2019-04-07T06:34:10.099Z,72.50
2019-04-07T06:36:44.181Z,72.40
2019-04-07T06:39:17.215Z,72.40
2019-04-07T06:41:47.638Z,72.50
2019-04-07T06:44:20.887Z,72.60
2019-04-07T06:46:58.511Z,72.50
2019-04-07T06:49:38.294Z,72.20
2019-04-07T06:52:12.227Z,72.10
2019-04-07T06:54:44.889Z,72.40
2019-04-07T06:57:37.708Z,72.80
2019-04-07T07:00:20.609Z,72.80
2019-04-07T07:03:11.593Z,72.60
2019-04-07T07:06:01.103Z,72.80
2019-04-07T07:08:45.737Z,73.30
2019-04-07T07:11:24.482Z,73.60
2019-04-07T07:13:47.710Z,73.50
2019-04-07T07:16:34.941Z,73.70
2019-04-07T07:19:09.578Z,74.00
2019-04-07T07:21:57.971Z,74.80
2019-04-07T07:24:27.983Z,75.00
2019-04-07T07:27:07.094Z,76.10
2019-04-07T07:29:35.587Z,75.40
2019-04-07T07:32:06.414Z,75.20
2019-04-07T07:34:39.827Z,75.00
2019-04-07T07:37:19.727Z,75.20
2019-04-07T07:39:51.941Z,75.60
2019-04-07T07:42:23.963Z,75.90
2019-04-07T07:44:54.260Z,75.90
2019-04-07T07:47:27.780Z,76.20
2019-04-07T07:50:07.072Z,76.30
2019-04-07T07:52:30.911Z,76.10
2019-04-07T07:55:02.539Z,75.90
2019-04-07T07:57:38.674Z,75.90
2019-04-07T08:00:11.852Z,75.90
2019-04-07T08:02:50.904Z,75.90
2019-04-07T08:05:47.399Z,75.90
2019-04-07T08:08:17.951Z,76.20
2019-04-07T08:10:51.686Z,76.50
2019-04-07T08:13:23.630Z,77.60
2019-04-07T08:15:56.619Z,76.80
2019-04-07T08:18:30.786Z,77.10
2019-04-07T08:21:02.270Z,77.30
2019-04-07T08:23:32.271Z,77.60
2019-04-07T08:26:03.894Z,77.60
2019-04-07T08:28:40.549Z,77.70
2019-04-07T08:31:12.103Z,77.90
2019-04-07T08:33:42.162Z,78.40
2019-04-07T08:36:15.266Z,79.00
2019-04-07T08:38:46.598Z,79.50
2019-04-07T08:41:16.728Z,79.80
2019-04-07T08:43:46.643Z,80.00
2019-04-07T08:49:32.686Z,79.70
2019-04-07T08:52:09.067Z,79.60
2019-04-07T08:54:36.936Z,79.40
2019-04-07T08:57:09.534Z,79.20
2019-04-07T08:59:42.379Z,79.00
2019-04-07T09:02:13.825Z,79.00
2019-04-07T09:04:47.311Z,79.00
2019-04-07T09:07:15.450Z,79.10
2019-04-07T09:10:18.874Z,79.30
2019-04-07T09:12:19.154Z,79.60
2019-04-07T09:14:49.229Z,79.80
2019-04-07T09:20:51.822Z,80.70
2019-04-07T09:23:33.288Z,81.50
2019-04-07T09:26:12.044Z,81.80
2019-04-07T09:28:46.568Z,82.10
2019-04-07T09:31:23.646Z,82.60
2019-04-07T09:34:18.314Z,82.90
2019-04-07T09:36:51.359Z,83.30
2019-04-07T09:39:57.835Z,83.60
2019-04-07T09:42:41.388Z,84.00
2019-04-07T09:45:34.540Z,84.30
2019-04-07T09:48:21.144Z,84.70
2019-04-07T09:50:54.387Z,84.90
2019-04-07T09:53:44.827Z,85.20
2019-04-07T09:56:39.746Z,85.30
2019-04-07T09:59:15.116Z,85.60
2019-04-07T10:01:45.834Z,85.70
2019-04-07T10:04:29.414Z,85.70
2019-04-07T10:10:28.530Z,86.10
2019-04-07T10:13:10.153Z,86.10
2019-04-07T10:15:44.608Z,86.10
2019-04-07T10:18:25.445Z,86.20
2019-04-07T10:21:05.588Z,86.20
2019-04-07T10:23:50.484Z,86.40
2019-04-07T10:26:28.086Z,86.40
2019-04-07T10:29:16.592Z,86.30
2019-04-07T10:32:01.249Z,86.30
2019-04-07T10:34:45.073Z,86.90
2019-04-07T10:37:56.962Z,86.20
2019-04-07T10:40:37.920Z,86.30
2019-04-07T10:43:11.879Z,86.20
2019-04-07T10:45:43.877Z,86.30
2019-04-07T10:48:24.876Z,86.30
2019-04-07T10:50:57.945Z,86.40
2019-04-07T10:53:45.917Z,86.70
2019-04-07T10:56:58.385Z,86.70
2019-04-07T10:59:42.715Z,86.80
2019-04-07T11:02:16.811Z,86.90
2019-04-07T11:04:51.062Z,87.00
2019-04-07T11:07:46.107Z,87.10
2019-04-07T11:10:39.370Z,87.10
2019-04-07T11:13:20.889Z,87.30
2019-04-07T11:15:54.139Z,87.20
2019-04-07T11:18:45.043Z,87.10
2019-04-07T11:21:30.299Z,87.10
2019-04-07T11:24:19.664Z,86.90
2019-04-07T11:27:05.447Z,86.80
2019-04-07T11:29:40.025Z,86.70
2019-04-07T11:32:24.199Z,86.70
2019-04-07T11:35:05.050Z,86.60
2019-04-07T11:37:39.094Z,86.60
2019-04-07T11:40:13.157Z,86.50
2019-04-07T11:42:44.850Z,86.50
2019-04-07T11:45:33.456Z,86.40
2019-04-07T11:48:14.456Z,86.30
2019-04-07T11:50:46.141Z,86.20
2019-04-07T11:53:17.686Z,86.00
2019-04-07T11:55:54.870Z,85.90
2019-04-07T11:58:33.714Z,85.80
2019-04-07T12:01:16.503Z,85.70
2019-04-07T12:04:05.770Z,85.70
2019-04-07T12:07:06.250Z,85.60
2019-04-07T12:09:41.641Z,85.80
2019-04-07T12:12:30.012Z,85.70
2019-04-07T12:15:19.553Z,86.30
2019-04-07T12:18:08.757Z,85.70
2019-04-07T12:23:25.425Z,85.70
2019-04-07T12:26:14.131Z,85.60
2019-04-07T12:28:47.579Z,85.70
2019-04-07T12:31:27.732Z,85.50
2019-04-07T12:34:02.864Z,85.50
2019-04-07T12:37:02.357Z,85.30
2019-04-07T12:39:35.006Z,85.20
2019-04-07T12:42:23.498Z,85.10
2019-04-07T12:44:58.243Z,85.00
2019-04-07T12:47:49.612Z,85.00
2019-04-07T12:50:37.627Z,84.90
2019-04-07T12:53:26.449Z,84.90
2019-04-07T12:56:15.751Z,84.80
2019-04-07T12:58:51.577Z,84.90
2019-04-07T13:01:41.302Z,84.80
2019-04-07T13:04:15.517Z,84.90
2019-04-07T13:07:05.331Z,84.80
2019-04-07T13:09:42.384Z,84.80
2019-04-07T13:12:27.202Z,84.80
2019-04-07T13:15:15.781Z,84.80
2019-04-07T13:17:50.630Z,84.90
2019-04-07T13:20:34.071Z,84.90
2019-04-07T13:23:08.474Z,84.80
2019-04-07T13:25:42.887Z,84.90
2019-04-07T13:28:23.704Z,85.50
2019-04-07T13:31:01.880Z,84.90
2019-04-07T13:33:34.834Z,84.90
2019-04-07T13:36:25.225Z,85.00
2019-04-07T13:38:59.864Z,84.90
2019-04-07T13:41:43.297Z,84.90
2019-04-07T13:44:27.182Z,84.80
2019-04-07T13:47:00.611Z,84.80
2019-04-07T13:49:51.383Z,84.80
2019-04-07T13:52:24.680Z,84.70
2019-04-07T13:54:56.919Z,84.70
2019-04-07T13:57:48.274Z,84.70
2019-04-07T14:00:28.793Z,84.70
2019-04-07T14:03:00.281Z,84.70
2019-04-07T14:05:38.856Z,84.70
2019-04-07T14:08:14.945Z,84.60
2019-04-07T14:11:04.214Z,84.70
2019-04-07T14:13:54.456Z,84.60
2019-04-07T14:16:27.438Z,84.70
2019-04-07T14:19:11.316Z,84.60
2019-04-07T14:22:02.124Z,84.60
2019-04-07T14:24:33.556Z,84.70
2019-04-07T14:27:07.618Z,84.50
2019-04-07T14:29:51.262Z,84.40
2019-04-07T14:32:38.818Z,84.40
2019-04-07T14:35:16.050Z,84.30
2019-04-07T14:37:59.701Z,84.30
2019-04-07T14:40:47.449Z,84.20
2019-04-07T14:43:35.122Z,84.30
2019-04-07T14:46:12.325Z,84.20
2019-04-07T14:48:53.299Z,84.10
2019-04-07T14:51:30.614Z,84.00
2019-04-07T14:54:19.682Z,84.00
2019-04-07T14:57:22.521Z,83.90
2019-04-07T15:00:06.386Z,83.80
2019-04-07T15:02:36.551Z,83.90
2019-04-07T15:05:14.886Z,83.80
2019-04-07T15:07:46.953Z,83.80
2019-04-07T15:10:26.269Z,83.80
2019-04-07T15:13:06.535Z,83.70
2019-04-07T15:15:44.440Z,83.60
2019-04-07T15:18:32.575Z,83.60
2019-04-07T15:21:08.468Z,83.40
2019-04-07T15:23:44.987Z,83.30
2019-04-07T15:26:24.728Z,83.40
2019-04-07T15:28:57.763Z,83.20
2019-04-07T15:31:26.430Z,83.20
2019-04-07T15:37:10.712Z,83.10
2019-04-07T15:39:40.374Z,83.10
2019-04-07T15:42:11.195Z,83.00
2019-04-07T15:44:41.581Z,83.00
2019-04-07T15:47:15.580Z,83.10
2019-04-07T15:49:45.425Z,83.00
2019-04-07T15:52:15.364Z,83.00
2019-04-07T15:54:53.721Z,82.90
2019-04-07T15:57:44.207Z,82.80
2019-04-07T16:00:16.582Z,82.80
2019-04-07T16:03:00.730Z,82.80
2019-04-07T16:05:49.055Z,82.70
2019-04-07T16:08:19.034Z,82.70
2019-04-07T16:10:54.553Z,82.60
2019-04-07T16:13:21.665Z,82.70
2019-04-07T16:19:13.511Z,82.40
2019-04-07T16:21:43.417Z,82.30
2019-04-07T16:24:16.738Z,82.20
2019-04-07T16:26:46.827Z,82.10
2019-04-07T16:29:19.026Z,82.10
2019-04-07T16:31:49.944Z,82.10
2019-04-07T16:38:02.997Z,82.00
2019-04-07T16:40:33.937Z,81.90
2019-04-07T16:43:10.929Z,81.80
2019-04-07T16:45:56.051Z,81.80
2019-04-07T16:48:26.136Z,81.80
2019-04-07T16:50:59.925Z,81.80
2019-04-07T16:53:31.024Z,82.70
2019-04-07T16:56:08.448Z,81.70
2019-04-07T16:58:39.934Z,81.70
2019-04-07T17:01:10.998Z,81.60
2019-04-07T17:03:40.899Z,81.60
2019-04-07T17:06:12.282Z,81.50
2019-04-07T17:08:45.423Z,81.50
2019-04-07T17:11:15.969Z,81.40
2019-04-07T17:13:47.225Z,81.40
2019-04-07T17:16:21.480Z,81.50
2019-04-07T17:19:26.649Z,82.20
2019-04-07T17:22:03.135Z,81.30
2019-04-07T17:24:33.440Z,81.40
2019-04-07T17:30:28.987Z,80.90
2019-04-07T17:33:03.305Z,80.80
2019-04-07T17:35:33.542Z,80.80
2019-04-07T17:38:06.671Z,80.70
2019-04-07T17:40:37.971Z,80.70
2019-04-07T17:43:37.589Z,80.70
2019-04-07T17:49:24.493Z,80.80
2019-04-07T17:51:56.312Z,80.70
2019-04-07T17:54:28.958Z,80.60
2019-04-07T17:57:12.572Z,80.60
2019-04-07T17:59:45.766Z,80.70
2019-04-07T18:02:31.418Z,80.70
2019-04-07T18:05:14.786Z,80.70
2019-04-07T18:07:52.731Z,80.60
2019-04-07T18:10:37.048Z,80.60
2019-04-07T18:13:37.649Z,80.40
2019-04-07T18:16:24.499Z,80.40
2019-04-07T18:18:59.595Z,80.30
2019-04-07T18:21:51.970Z,80.20
2019-04-07T18:24:32.303Z,80.30
2019-04-07T18:30:41.978Z,80.10
2019-04-07T18:33:17.636Z,80.10
2019-04-07T18:36:08.013Z,80.00
2019-04-07T18:38:56.390Z,80.30
2019-04-07T18:41:34.000Z,80.00
2019-04-07T18:44:22.911Z,80.00
2019-04-07T18:47:10.198Z,80.00
2019-04-07T18:49:58.248Z,80.00
2019-04-07T18:52:42.087Z,80.60
2019-04-07T18:55:27.296Z,80.00
2019-04-07T18:58:01.910Z,80.80
2019-04-07T19:00:45.568Z,80.00
2019-04-07T19:03:21.752Z,80.10
2019-04-07T19:06:13.322Z,80.10
2019-04-07T19:08:46.192Z,80.10
2019-04-07T19:11:37.858Z,80.10
2019-04-07T19:14:40.196Z,80.00
2019-04-07T19:17:08.543Z,79.90
2019-04-07T19:19:42.986Z,80.00
2019-04-07T19:22:18.837Z,79.90
2019-04-07T19:25:11.380Z,80.00
2019-04-07T19:27:46.064Z,79.80
2019-04-07T19:30:20.580Z,79.90
2019-04-07T19:33:08.934Z,79.80
2019-04-07T19:36:18.819Z,79.70
2019-04-07T19:39:02.731Z,79.70
2019-04-07T19:41:41.685Z,79.60
2019-04-07T19:44:37.077Z,79.50
2019-04-07T19:47:32.881Z,79.60
2019-04-07T19:50:05.353Z,79.60
2019-04-07T19:52:54.082Z,79.70
2019-04-07T19:55:49.575Z,79.70
2019-04-07T19:58:39.525Z,79.80
2019-04-07T20:01:29.057Z,79.90
2019-04-07T20:04:16.435Z,79.90
2019-04-07T20:07:28.588Z,79.90
2019-04-07T20:10:07.105Z,80.00
2019-04-07T20:12:54.519Z,80.00
2019-04-07T20:18:39.622Z,80.20
2019-04-07T20:21:13.182Z,80.40
2019-04-07T20:24:07.046Z,80.30
2019-04-07T20:26:51.894Z,80.10
2019-04-07T20:29:24.215Z,80.00
2019-04-07T20:32:01.264Z,79.90
2019-04-07T20:34:40.407Z,79.80
2019-04-07T20:37:28.760Z,79.70
2019-04-07T20:40:17.066Z,79.70
2019-04-07T20:42:57.111Z,79.60
2019-04-07T20:45:27.567Z,79.60
2019-04-07T20:48:03.063Z,79.70
2019-04-07T20:50:35.490Z,79.70
2019-04-07T20:53:15.427Z,79.80
2019-04-07T20:56:12.659Z,79.80
2019-04-07T20:58:54.956Z,79.90
2019-04-07T21:01:35.318Z,79.80
2019-04-07T21:04:21.767Z,79.80
2019-04-07T21:10:45.571Z,79.80
2019-04-07T21:13:18.313Z,79.80
2019-04-07T21:16:31.223Z,79.80
2019-04-07T21:19:19.062Z,79.80
2019-04-07T21:21:53.758Z,79.80
2019-04-07T21:27:42.866Z,79.80
2019-04-07T21:30:15.146Z,79.70
2019-04-07T21:32:52.575Z,79.60
2019-04-07T21:38:57.051Z,79.70
2019-04-07T21:41:28.608Z,79.80
2019-04-07T21:44:16.476Z,79.80
2019-04-07T21:50:24.413Z,79.80
2019-04-07T21:53:06.548Z,79.80
2019-04-07T21:59:20.090Z,79.00
2019-04-07T22:01:55.096Z,79.70
2019-04-07T22:04:41.614Z,79.70
2019-04-07T22:10:47.888Z,79.80
2019-04-07T22:13:19.519Z,79.80
2019-04-07T22:19:14.912Z,80.00
2019-04-07T22:21:44.774Z,80.00
2019-04-07T22:24:15.254Z,80.10
2019-04-07T22:30:20.313Z,80.20
2019-04-07T22:32:51.275Z,80.00
2019-04-07T22:35:21.507Z,79.90
2019-04-07T22:37:51.311Z,79.90
2019-04-07T22:40:21.547Z,79.90
2019-04-07T22:42:51.353Z,79.80
2019-04-07T22:45:27.095Z,79.70
2019-04-07T22:47:55.244Z,79.80
2019-04-07T22:50:25.304Z,79.60
2019-04-07T22:52:56.246Z,79.60
2019-04-07T22:55:26.775Z,79.70
2019-04-07T22:57:57.667Z,79.70
2019-04-07T23:00:29.507Z,79.70
2019-04-07T23:02:59.503Z,79.70
2019-04-07T23:08:53.061Z,79.60
2019-04-07T23:11:23.700Z,79.70
2019-04-07T23:13:53.587Z,79.70
2019-04-07T23:19:46.897Z,80.40
2019-04-07T23:25:39.397Z,79.50
2019-04-07T23:28:09.175Z,79.50
2019-04-07T23:30:39.712Z,79.60
2019-04-07T23:33:10.447Z,79.50
2019-04-07T23:39:09.862Z,79.60
2019-04-07T23:41:39.904Z,79.60
2019-04-07T23:44:12.886Z,79.60
2019-04-07T23:50:09.466Z,79.70
2019-04-07T23:52:39.270Z,79.50
2019-04-07T23:55:09.206Z,79.50
